Overview Statistics Trail Chart Weather Telemetry Raw packets
 

This is the latest recevied weather packets stored in our database for station/object HS5AU-13. If no packets are shown the sender has not sent any weather packets the latest 10 day(s).

<< 50 51 52 53 54 55 56 >>
Time Temp. Humidity Pressure Rain* Wind** Luminosity Snow
1787802898 27.22° C 86% 1001 hPa 0 mm - 521 W/m² -
1787802298 28.33° C 87% 1000.7 hPa 0 mm - 594 W/m² -
1787801698 26.67° C 87% 1000.7 hPa 0 mm - 439 W/m² -
1787801098 26.67° C 89% 1000.8 hPa 0 mm - 459 W/m² -
1787800498 26.67° C 91% 1000.6 hPa 0 mm - 449 W/m² -
1787799898 26.11° C 89% 1000.7 hPa 0 mm - 447 W/m² -
1787799298 26.11° C 90% 1000.8 hPa 0 mm - 440 W/m² -
1787798698 26.11° C 90% 1000.8 hPa 0 mm - 421 W/m² -
1787798098 27.22° C 89% 1000.8 hPa 0 mm - 504 W/m² -
1787797498 26.11° C 91% 1000.7 hPa 0 mm - 375 W/m² -
1787796898 26.11° C 92% 1000.6 hPa 0 mm - 301 W/m² -
1787796298 25.56° C 92% 1000.6 hPa 0 mm - 401 W/m² -
1787795698 26.11° C 89% 1000.4 hPa 0 mm - 209 W/m² -
1787795098 25.56° C 92% 1000.3 hPa 0 mm - 665 W/m² -
1787794498 25.56° C 91% 1000.3 hPa 0 mm - 419 W/m² -
1787793898 25.56° C 92% 1000.2 hPa 0 mm - 665 W/m² -
1787793298 25° C 96% 1000.6 hPa 0 mm - 588 W/m² -
1787792698 23.33° C 99% 1003.5 hPa 0 mm - 355 W/m² -
1787792098 22.78° C 99% 1004.3 hPa 0 mm - 136 W/m² -
1787791498 22.78° C 99% 1004.3 hPa 0 mm - 143 W/m² -
1787790898 22.78° C 99% 1003.9 hPa 0 mm - 110 W/m² -
1787790298 22.78° C 99% 1003.6 hPa 0 mm - 214 W/m² -
1787789698 22.22° C 99% 1002.9 hPa 0 mm - 189 W/m² -
1787789098 22.22° C 99% 1002.4 hPa 0 mm - 71 W/m² -
1787788500 22.22° C 99% 1002.4 hPa 0 mm - 65 W/m² -

* Rain latest hour (hover to see other rain measurements)
** Current wind speed in m/s (hover to see current wind gust speed)